الصفحة الرئيسية
METAR-TAF:

METAR-TAF

مطار :

Cortez, كولورادو, الولايات المتحدة

دائرة عرض: 37-18-23N, خط طول: 108-37-32W, ارتفاع: 1803 متر

مراقبة الطقس الحالي

تاريخ ووقت الإصدار 51 دقيقة قبل الساعة 08:53UTC
ريح 7 عقدة من الشرق
درجة الحرارة 1°درجة مئوية
الرطوبة 44%
ضغط 1029 hPa
الرؤية: 16.1 كم
سماء صافية

METAR: KCEZ 290853Z AUTO 08007KT 10SM CLR 01/M10 A3038 RMK AO2 SLP243 T00061100 51006

زمن: 03:44 (09:44 UTC)


TAF: مفقودة

أرصاد الطقس والتوقعات من أكثر من 4000 مطار (تقارير الطقس للمطار METAR والتنبؤ بالطقس بالمطارTAF).

المحطات المتاحة هي النقط الصفراء والحمراء على الخريطة.

حرك المؤشر فوق النقطة لمعرفة اسم المحطة.

ثم انقر لمعرفة أرصاد وتوقعات الطقس.

لتغيير الخارطة: اضغط على الأزرار الخضراء مع رمز الصليب الأسود للتكبير. على الزر الأخضر مع شرطة للتصغير، أو على الأسهم الخضراء للخرائط المجاورة.


METAR-TAF: